sensor_id;sensor_type;location;lat;lon;timestamp;pressure;altitude;pressure_sealevel;temperature
76394;BMP180;65216;51.090;-115.352;2023-04-23T00:00:12;86886.80;;;23.08
76394;BMP180;65216;51.090;-115.352;2023-04-23T00:02:44;86880.80;;;23.06
76394;BMP180;65216;51.090;-115.352;2023-04-23T00:05:15;86885.00;;;23.08
76394;BMP180;65216;51.090;-115.352;2023-04-23T00:07:43;86875.00;;;23.10
76394;BMP180;65216;51.090;-115.352;2023-04-23T00:10:11;86879.80;;;23.10
76394;BMP180;65216;51.090;-115.352;2023-04-23T00:12:42;86875.60;;;23.10
76394;BMP180;65216;51.090;-115.352;2023-04-23T00:15:10;86869.00;;;23.02
76394;BMP180;65216;51.090;-115.352;2023-04-23T00:17:37;86875.20;;;23.00
76394;BMP180;65216;51.090;-115.352;2023-04-23T00:20:06;86876.20;;;23.00
76394;BMP180;65216;51.090;-115.352;2023-04-23T00:22:33;86869.80;;;23.00
76394;BMP180;65216;51.090;-115.352;2023-04-23T00:25:01;86872.20;;;23.00
76394;BMP180;65216;51.090;-115.352;2023-04-23T00:27:28;86877.20;;;23.00
76394;BMP180;65216;51.090;-115.352;2023-04-23T00:29:56;86870.40;;;23.00
76394;BMP180;65216;51.090;-115.352;2023-04-23T00:32:26;86881.20;;;23.00
76394;BMP180;65216;51.090;-115.352;2023-04-23T00:34:53;86868.00;;;23.00
76394;BMP180;65216;51.090;-115.352;2023-04-23T00:37:22;86875.40;;;23.00
76394;BMP180;65216;51.090;-115.352;2023-04-23T00:39:49;86860.60;;;23.00
76394;BMP180;65216;51.090;-115.352;2023-04-23T00:42:20;86867.40;;;23.00
76394;BMP180;65216;51.090;-115.352;2023-04-23T00:44:49;86879.20;;;23.00
76394;BMP180;65216;51.090;-115.352;2023-04-23T00:47:17;86868.00;;;23.00
76394;BMP180;65216;51.090;-115.352;2023-04-23T00:49:46;86868.00;;;23.00
76394;BMP180;65216;51.090;-115.352;2023-04-23T00:52:16;86859.60;;;23.00
76394;BMP180;65216;51.090;-115.352;2023-04-23T00:54:43;86858.40;;;23.00
76394;BMP180;65216;51.090;-115.352;2023-04-23T00:57:13;86869.20;;;23.00
76394;BMP180;65216;51.090;-115.352;2023-04-23T00:59:43;86871.20;;;23.00
76394;BMP180;65216;51.090;-115.352;2023-04-23T01:02:11;86866.40;;;23.00
76394;BMP180;65216;51.090;-115.352;2023-04-23T01:04:41;86868.80;;;23.00
76394;BMP180;65216;51.090;-115.352;2023-04-23T01:07:13;86853.80;;;22.90
76394;BMP180;65216;51.090;-115.352;2023-04-23T01:09:40;86851.60;;;22.90
76394;BMP180;65216;51.090;-115.352;2023-04-23T01:12:14;86859.20;;;22.90
76394;BMP180;65216;51.090;-115.352;2023-04-23T01:14:42;86852.60;;;22.90
76394;BMP180;65216;51.090;-115.352;2023-04-23T01:17:12;86849.20;;;22.90
76394;BMP180;65216;51.090;-115.352;2023-04-23T01:19:40;86846.60;;;22.90
76394;BMP180;65216;51.090;-115.352;2023-04-23T01:22:15;86841.20;;;22.90
76394;BMP180;65216;51.090;-115.352;2023-04-23T01:24:42;86843.60;;;22.82
76394;BMP180;65216;51.090;-115.352;2023-04-23T01:27:13;86839.40;;;22.80
76394;BMP180;65216;51.090;-115.352;2023-04-23T01:29:46;86838.00;;;22.80
76394;BMP180;65216;51.090;-115.352;2023-04-23T01:32:14;86839.40;;;22.76
76394;BMP180;65216;51.090;-115.352;2023-04-23T01:34:46;86836.60;;;22.70
76394;BMP180;65216;51.090;-115.352;2023-04-23T01:37:15;86821.00;;;22.70
76394;BMP180;65216;51.090;-115.352;2023-04-23T01:39:42;86825.60;;;22.70
76394;BMP180;65216;51.090;-115.352;2023-04-23T01:42:10;86837.80;;;22.60
76394;BMP180;65216;51.090;-115.352;2023-04-23T01:44:37;86832.00;;;22.60
76394;BMP180;65216;51.090;-115.352;2023-04-23T01:47:08;86831.60;;;22.60
76394;BMP180;65216;51.090;-115.352;2023-04-23T01:49:35;86822.20;;;22.60
76394;BMP180;65216;51.090;-115.352;2023-04-23T01:52:03;86830.00;;;22.50
76394;BMP180;65216;51.090;-115.352;2023-04-23T01:54:30;86823.80;;;22.50
76394;BMP180;65216;51.090;-115.352;2023-04-23T01:56:57;86825.00;;;22.50
76394;BMP180;65216;51.090;-115.352;2023-04-23T01:59:24;86828.60;;;22.50
76394;BMP180;65216;51.090;-115.352;2023-04-23T02:01:55;86813.40;;;22.40
76394;BMP180;65216;51.090;-115.352;2023-04-23T02:04:22;86817.40;;;22.40
76394;BMP180;65216;51.090;-115.352;2023-04-23T02:06:51;86811.60;;;22.40
76394;BMP180;65216;51.090;-115.352;2023-04-23T02:09:20;86809.60;;;22.40
76394;BMP180;65216;51.090;-115.352;2023-04-23T02:11:51;86807.40;;;22.40
76394;BMP180;65216;51.090;-115.352;2023-04-23T02:14:18;86810.20;;;22.30
76394;BMP180;65216;51.090;-115.352;2023-04-23T02:16:46;86816.80;;;22.30
76394;BMP180;65216;51.090;-115.352;2023-04-23T02:19:13;86806.00;;;22.30
76394;BMP180;65216;51.090;-115.352;2023-04-23T02:21:42;86813.40;;;22.30
76394;BMP180;65216;51.090;-115.352;2023-04-23T02:24:11;86807.80;;;22.26
76394;BMP180;65216;51.090;-115.352;2023-04-23T02:26:38;86818.20;;;22.20
76394;BMP180;65216;51.090;-115.352;2023-04-23T02:29:06;86816.60;;;22.20
76394;BMP180;65216;51.090;-115.352;2023-04-23T02:31:33;86818.00;;;22.20
76394;BMP180;65216;51.090;-115.352;2023-04-23T02:34:00;86818.80;;;22.20
76394;BMP180;65216;51.090;-115.352;2023-04-23T02:36:30;86819.80;;;22.10
76394;BMP180;65216;51.090;-115.352;2023-04-23T02:38:57;86812.80;;;22.10
76394;BMP180;65216;51.090;-115.352;2023-04-23T02:41:27;86806.20;;;22.10
76394;BMP180;65216;51.090;-115.352;2023-04-23T02:43:55;86815.60;;;22.10
76394;BMP180;65216;51.090;-115.352;2023-04-23T02:46:22;86808.80;;;22.00
76394;BMP180;65216;51.090;-115.352;2023-04-23T02:48:49;86803.60;;;22.00
76394;BMP180;65216;51.090;-115.352;2023-04-23T02:51:17;86807.00;;;22.00
76394;BMP180;65216;51.090;-115.352;2023-04-23T02:53:44;86797.80;;;22.00
76394;BMP180;65216;51.090;-115.352;2023-04-23T02:56:11;86802.40;;;22.00
76394;BMP180;65216;51.090;-115.352;2023-04-23T02:58:38;86798.20;;;22.00
76394;BMP180;65216;51.090;-115.352;2023-04-23T03:01:06;86799.40;;;22.00
76394;BMP180;65216;51.090;-115.352;2023-04-23T03:03:34;86794.80;;;22.00
76394;BMP180;65216;51.090;-115.352;2023-04-23T03:06:05;86799.40;;;21.90
76394;BMP180;65216;51.090;-115.352;2023-04-23T03:08:33;86800.60;;;21.90
76394;BMP180;65216;51.090;-115.352;2023-04-23T03:11:01;86795.20;;;21.90
76394;BMP180;65216;51.090;-115.352;2023-04-23T03:13:28;86788.40;;;21.90
76394;BMP180;65216;51.090;-115.352;2023-04-23T03:15:55;86804.60;;;21.90
76394;BMP180;65216;51.090;-115.352;2023-04-23T03:18:23;86810.00;;;21.80
76394;BMP180;65216;51.090;-115.352;2023-04-23T03:20:52;86808.80;;;21.80
76394;BMP180;65216;51.090;-115.352;2023-04-23T03:23:19;86806.80;;;21.80
76394;BMP180;65216;51.090;-115.352;2023-04-23T03:25:47;86807.40;;;21.80
76394;BMP180;65216;51.090;-115.352;2023-04-23T03:28:14;86811.80;;;21.80
76394;BMP180;65216;51.090;-115.352;2023-04-23T03:30:41;86808.80;;;21.78
76394;BMP180;65216;51.090;-115.352;2023-04-23T03:33:09;86806.00;;;21.70
76394;BMP180;65216;51.090;-115.352;2023-04-23T03:35:36;86808.20;;;21.70
76394;BMP180;65216;51.090;-115.352;2023-04-23T03:38:03;86809.60;;;21.70
76394;BMP180;65216;51.090;-115.352;2023-04-23T03:40:33;86813.40;;;21.70
76394;BMP180;65216;51.090;-115.352;2023-04-23T03:43:00;86817.20;;;21.70
76394;BMP180;65216;51.090;-115.352;2023-04-23T03:45:28;86812.40;;;21.70
76394;BMP180;65216;51.090;-115.352;2023-04-23T03:47:56;86814.40;;;21.60
76394;BMP180;65216;51.090;-115.352;2023-04-23T03:50:23;86813.00;;;21.60
76394;BMP180;65216;51.090;-115.352;2023-04-23T03:52:50;86816.20;;;21.60
76394;BMP180;65216;51.090;-115.352;2023-04-23T03:55:18;86815.20;;;21.60
76394;BMP180;65216;51.090;-115.352;2023-04-23T03:57:46;86810.80;;;21.60
76394;BMP180;65216;51.090;-115.352;2023-04-23T04:00:14;86804.60;;;21.60
76394;BMP180;65216;51.090;-115.352;2023-04-23T04:02:41;86801.00;;;21.60
76394;BMP180;65216;51.090;-115.352;2023-04-23T04:05:08;86798.80;;;21.58
76394;BMP180;65216;51.090;-115.352;2023-04-23T04:07:39;86795.00;;;21.50
76394;BMP180;65216;51.090;-115.352;2023-04-23T04:10:07;86795.60;;;21.50
76394;BMP180;65216;51.090;-115.352;2023-04-23T04:12:34;86797.00;;;21.50
76394;BMP180;65216;51.090;-115.352;2023-04-23T04:15:08;86792.20;;;21.50
76394;BMP180;65216;51.090;-115.352;2023-04-23T04:17:38;86793.40;;;21.50
76394;BMP180;65216;51.090;-115.352;2023-04-23T04:20:07;86790.00;;;21.50
76394;BMP180;65216;51.090;-115.352;2023-04-23T04:22:35;86790.20;;;21.50
76394;BMP180;65216;51.090;-115.352;2023-04-23T04:25:03;86791.20;;;21.46
76394;BMP180;65216;51.090;-115.352;2023-04-23T04:27:31;86790.80;;;21.42
76394;BMP180;65216;51.090;-115.352;2023-04-23T04:30:01;86792.60;;;21.40
76394;BMP180;65216;51.090;-115.352;2023-04-23T04:32:28;86791.40;;;21.40
76394;BMP180;65216;51.090;-115.352;2023-04-23T04:34:56;86789.00;;;21.40
76394;BMP180;65216;51.090;-115.352;2023-04-23T04:37:24;86791.80;;;21.40
76394;BMP180;65216;51.090;-115.352;2023-04-23T04:39:52;86786.00;;;21.40
76394;BMP180;65216;51.090;-115.352;2023-04-23T04:42:22;86781.80;;;21.40
76394;BMP180;65216;51.090;-115.352;2023-04-23T04:44:50;86785.40;;;21.40
76394;BMP180;65216;51.090;-115.352;2023-04-23T04:47:18;86781.20;;;21.40
76394;BMP180;65216;51.090;-115.352;2023-04-23T04:49:46;86782.00;;;21.40
76394;BMP180;65216;51.090;-115.352;2023-04-23T04:52:14;86779.00;;;21.40
76394;BMP180;65216;51.090;-115.352;2023-04-23T04:54:44;86783.40;;;21.40
76394;BMP180;65216;51.090;-115.352;2023-04-23T04:57:11;86781.80;;;21.34
76394;BMP180;65216;51.090;-115.352;2023-04-23T04:59:39;86779.00;;;21.30
76394;BMP180;65216;51.090;-115.352;2023-04-23T05:02:06;86776.60;;;21.30
76394;BMP180;65216;51.090;-115.352;2023-04-23T05:04:33;86773.60;;;21.30
76394;BMP180;65216;51.090;-115.352;2023-04-23T05:07:00;86771.00;;;21.30
76394;BMP180;65216;51.090;-115.352;2023-04-23T05:09:27;86765.60;;;21.30
76394;BMP180;65216;51.090;-115.352;2023-04-23T05:11:55;86769.40;;;21.30
76394;BMP180;65216;51.090;-115.352;2023-04-23T05:14:23;86767.80;;;21.30
76394;BMP180;65216;51.090;-115.352;2023-04-23T05:16:52;86769.40;;;21.30
76394;BMP180;65216;51.090;-115.352;2023-04-23T05:19:19;86765.60;;;21.26
76394;BMP180;65216;51.090;-115.352;2023-04-23T05:21:49;86761.80;;;21.26
76394;BMP180;65216;51.090;-115.352;2023-04-23T05:24:16;86756.20;;;21.30
76394;BMP180;65216;51.090;-115.352;2023-04-23T05:26:47;86752.40;;;21.24
76394;BMP180;65216;51.090;-115.352;2023-04-23T05:29:15;86749.40;;;21.20
76394;BMP180;65216;51.090;-115.352;2023-04-23T05:31:45;86747.40;;;21.22
76394;BMP180;65216;51.090;-115.352;2023-04-23T05:34:12;86742.40;;;21.20
76394;BMP180;65216;51.090;-115.352;2023-04-23T05:36:39;86734.00;;;21.20
76394;BMP180;65216;51.090;-115.352;2023-04-23T05:39:06;86726.80;;;21.20
76394;BMP180;65216;51.090;-115.352;2023-04-23T05:41:34;86723.40;;;21.20
76394;BMP180;65216;51.090;-115.352;2023-04-23T05:44:01;86721.20;;;21.20
76394;BMP180;65216;51.090;-115.352;2023-04-23T05:46:28;86718.40;;;21.16
76394;BMP180;65216;51.090;-115.352;2023-04-23T05:48:58;86719.00;;;21.10
76394;BMP180;65216;51.090;-115.352;2023-04-23T05:51:25;86722.80;;;21.10
76394;BMP180;65216;51.090;-115.352;2023-04-23T05:53:55;86718.40;;;21.10
76394;BMP180;65216;51.090;-115.352;2023-04-23T05:56:25;86719.40;;;21.10
76394;BMP180;65216;51.090;-115.352;2023-04-23T05:58:53;86718.00;;;21.06
76394;BMP180;65216;51.090;-115.352;2023-04-23T06:01:24;86713.60;;;21.00
76394;BMP180;65216;51.090;-115.352;2023-04-23T06:03:54;86713.00;;;21.00
76394;BMP180;65216;51.090;-115.352;2023-04-23T06:06:21;86709.60;;;21.00
76394;BMP180;65216;51.090;-115.352;2023-04-23T06:08:48;86704.60;;;21.00
76394;BMP180;65216;51.090;-115.352;2023-04-23T06:11:16;86705.40;;;21.00
76394;BMP180;65216;51.090;-115.352;2023-04-23T06:13:44;86708.60;;;21.00
76394;BMP180;65216;51.090;-115.352;2023-04-23T06:16:11;86705.00;;;21.00
76394;BMP180;65216;51.090;-115.352;2023-04-23T06:18:38;86711.40;;;21.00
76394;BMP180;65216;51.090;-115.352;2023-04-23T06:21:06;86713.00;;;21.00
76394;BMP180;65216;51.090;-115.352;2023-04-23T06:23:33;86718.80;;;21.00
76394;BMP180;65216;51.090;-115.352;2023-04-23T06:26:04;86719.20;;;20.98
76394;BMP180;65216;51.090;-115.352;2023-04-23T06:28:31;86714.80;;;20.92
76394;BMP180;65216;51.090;-115.352;2023-04-23T06:30:58;86715.20;;;20.90
76394;BMP180;65216;51.090;-115.352;2023-04-23T06:33:26;86711.60;;;20.90
76394;BMP180;65216;51.090;-115.352;2023-04-23T06:35:53;86709.60;;;20.90
76394;BMP180;65216;51.090;-115.352;2023-04-23T06:38:20;86712.60;;;20.90
76394;BMP180;65216;51.090;-115.352;2023-04-23T06:40:48;86712.20;;;20.90
76394;BMP180;65216;51.090;-115.352;2023-04-23T06:43:18;86713.40;;;20.90
76394;BMP180;65216;51.090;-115.352;2023-04-23T06:45:45;86713.80;;;20.90
76394;BMP180;65216;51.090;-115.352;2023-04-23T06:48:13;86712.60;;;20.90
76394;BMP180;65216;51.090;-115.352;2023-04-23T06:50:44;86710.00;;;20.90
76394;BMP180;65216;51.090;-115.352;2023-04-23T06:53:11;86709.40;;;20.90
76394;BMP180;65216;51.090;-115.352;2023-04-23T06:55:39;86709.40;;;20.90
76394;BMP180;65216;51.090;-115.352;2023-04-23T06:58:06;86711.40;;;20.90
76394;BMP180;65216;51.090;-115.352;2023-04-23T07:00:37;86713.00;;;20.90
76394;BMP180;65216;51.090;-115.352;2023-04-23T07:03:07;86717.40;;;20.90
76394;BMP180;65216;51.090;-115.352;2023-04-23T07:05:37;86715.00;;;20.90
76394;BMP180;65216;51.090;-115.352;2023-04-23T07:08:04;86715.80;;;20.84
76394;BMP180;65216;51.090;-115.352;2023-04-23T07:10:31;86709.20;;;20.80
76394;BMP180;65216;51.090;-115.352;2023-04-23T07:12:58;86712.40;;;20.80
76394;BMP180;65216;51.090;-115.352;2023-04-23T07:15:28;86709.80;;;20.80
76394;BMP180;65216;51.090;-115.352;2023-04-23T07:17:56;86706.60;;;20.80
76394;BMP180;65216;51.090;-115.352;2023-04-23T07:20:23;86708.20;;;20.80
76394;BMP180;65216;51.090;-115.352;2023-04-23T07:22:50;86701.60;;;20.80
76394;BMP180;65216;51.090;-115.352;2023-04-23T07:25:18;86706.40;;;20.80
76394;BMP180;65216;51.090;-115.352;2023-04-23T07:27:48;86706.80;;;20.80
76394;BMP180;65216;51.090;-115.352;2023-04-23T07:30:15;86703.60;;;20.80
76394;BMP180;65216;51.090;-115.352;2023-04-23T07:32:48;86704.40;;;20.80
76394;BMP180;65216;51.090;-115.352;2023-04-23T07:35:15;86702.20;;;20.80
76394;BMP180;65216;51.090;-115.352;2023-04-23T07:37:45;86697.20;;;20.80
76394;BMP180;65216;51.090;-115.352;2023-04-23T07:40:15;86698.80;;;20.78
76394;BMP180;65216;51.090;-115.352;2023-04-23T07:42:42;86701.00;;;20.74
76394;BMP180;65216;51.090;-115.352;2023-04-23T07:45:13;86699.00;;;20.72
76394;BMP180;65216;51.090;-115.352;2023-04-23T07:47:41;86698.60;;;20.70
76394;BMP180;65216;51.090;-115.352;2023-04-23T07:50:09;86701.80;;;20.72
76394;BMP180;65216;51.090;-115.352;2023-04-23T07:52:36;86702.40;;;20.70
76394;BMP180;65216;51.090;-115.352;2023-04-23T07:55:04;86704.00;;;20.70
76394;BMP180;65216;51.090;-115.352;2023-04-23T07:57:31;86703.00;;;20.70
76394;BMP180;65216;51.090;-115.352;2023-04-23T07:59:58;86703.00;;;20.70
76394;BMP180;65216;51.090;-115.352;2023-04-23T08:02:26;86703.20;;;20.70
76394;BMP180;65216;51.090;-115.352;2023-04-23T08:04:53;86704.60;;;20.70
76394;BMP180;65216;51.090;-115.352;2023-04-23T08:07:20;86696.00;;;20.70
76394;BMP180;65216;51.090;-115.352;2023-04-23T08:09:47;86696.60;;;20.70
76394;BMP180;65216;51.090;-115.352;2023-04-23T08:12:15;86691.80;;;20.70
76394;BMP180;65216;51.090;-115.352;2023-04-23T08:14:43;86695.60;;;20.70
76394;BMP180;65216;51.090;-115.352;2023-04-23T08:17:12;86689.80;;;20.70
76394;BMP180;65216;51.090;-115.352;2023-04-23T08:19:42;86692.80;;;20.70
76394;BMP180;65216;51.090;-115.352;2023-04-23T08:22:12;86692.80;;;20.70
76394;BMP180;65216;51.090;-115.352;2023-04-23T08:24:43;86687.40;;;20.70
76394;BMP180;65216;51.090;-115.352;2023-04-23T08:27:12;86692.80;;;20.70
76394;BMP180;65216;51.090;-115.352;2023-04-23T08:29:39;86696.80;;;20.70
76394;BMP180;65216;51.090;-115.352;2023-04-23T08:32:06;86691.20;;;20.70
76394;BMP180;65216;51.090;-115.352;2023-04-23T08:34:33;86686.40;;;20.72
76394;BMP180;65216;51.090;-115.352;2023-04-23T08:37:05;86688.60;;;20.74
76394;BMP180;65216;51.090;-115.352;2023-04-23T08:39:33;86690.00;;;20.78
76394;BMP180;65216;51.090;-115.352;2023-04-23T08:42:25;86691.80;;;20.80
76394;BMP180;65216;51.090;-115.352;2023-04-23T08:44:54;86695.00;;;20.78
76394;BMP180;65216;51.090;-115.352;2023-04-23T08:47:24;86690.40;;;20.78
76394;BMP180;65216;51.090;-115.352;2023-04-23T08:49:58;86687.40;;;20.80
76394;BMP180;65216;51.090;-115.352;2023-04-23T08:52:31;86683.20;;;20.80
76394;BMP180;65216;51.090;-115.352;2023-04-23T08:55:07;86684.00;;;20.80
76394;BMP180;65216;51.090;-115.352;2023-04-23T08:57:41;86681.00;;;20.80
76394;BMP180;65216;51.090;-115.352;2023-04-23T09:00:12;86680.60;;;20.80
76394;BMP180;65216;51.090;-115.352;2023-04-23T09:02:47;86674.20;;;20.80
76394;BMP180;65216;51.090;-115.352;2023-04-23T09:05:20;86675.40;;;20.80
76394;BMP180;65216;51.090;-115.352;2023-04-23T09:07:47;86671.00;;;20.80
76394;BMP180;65216;51.090;-115.352;2023-04-23T09:10:15;86674.00;;;20.80
76394;BMP180;65216;51.090;-115.352;2023-04-23T09:12:42;86670.00;;;20.80
76394;BMP180;65216;51.090;-115.352;2023-04-23T09:15:11;86667.60;;;20.80
76394;BMP180;65216;51.090;-115.352;2023-04-23T09:17:42;86666.20;;;20.80
76394;BMP180;65216;51.090;-115.352;2023-04-23T09:20:11;86665.60;;;20.80
76394;BMP180;65216;51.090;-115.352;2023-04-23T09:22:46;86665.00;;;20.80
76394;BMP180;65216;51.090;-115.352;2023-04-23T09:25:19;86663.60;;;20.80
76394;BMP180;65216;51.090;-115.352;2023-04-23T09:27:48;86661.80;;;20.80
76394;BMP180;65216;51.090;-115.352;2023-04-23T09:30:16;86659.60;;;20.80
76394;BMP180;65216;51.090;-115.352;2023-04-23T09:32:45;86657.80;;;20.80
76394;BMP180;65216;51.090;-115.352;2023-04-23T09:35:17;86654.00;;;20.80
76394;BMP180;65216;51.090;-115.352;2023-04-23T09:37:50;86651.20;;;20.80
76394;BMP180;65216;51.090;-115.352;2023-04-23T09:40:22;86649.80;;;20.80
76394;BMP180;65216;51.090;-115.352;2023-04-23T09:42:51;86652.00;;;20.80
76394;BMP180;65216;51.090;-115.352;2023-04-23T09:45:20;86653.00;;;20.80
76394;BMP180;65216;51.090;-115.352;2023-04-23T09:50:33;86652.60;;;20.80
76394;BMP180;65216;51.090;-115.352;2023-04-23T09:53:03;86653.40;;;20.80
76394;BMP180;65216;51.090;-115.352;2023-04-23T09:55:36;86647.40;;;20.80
76394;BMP180;65216;51.090;-115.352;2023-04-23T09:58:06;86644.60;;;20.80
76394;BMP180;65216;51.090;-115.352;2023-04-23T10:00:38;86645.00;;;20.80
76394;BMP180;65216;51.090;-115.352;2023-04-23T10:03:09;86644.60;;;20.80
76394;BMP180;65216;51.090;-115.352;2023-04-23T10:05:41;86637.80;;;20.80
76394;BMP180;65216;51.090;-115.352;2023-04-23T10:08:09;86638.40;;;20.80
76394;BMP180;65216;51.090;-115.352;2023-04-23T10:10:40;86641.60;;;20.80
76394;BMP180;65216;51.090;-115.352;2023-04-23T10:13:10;86641.40;;;20.80
76394;BMP180;65216;51.090;-115.352;2023-04-23T10:15:37;86633.80;;;20.80
76394;BMP180;65216;51.090;-115.352;2023-04-23T10:18:06;86631.80;;;20.80
76394;BMP180;65216;51.090;-115.352;2023-04-23T10:20:34;86624.20;;;20.80
76394;BMP180;65216;51.090;-115.352;2023-04-23T10:23:02;86624.60;;;20.78
76394;BMP180;65216;51.090;-115.352;2023-04-23T10:25:30;86622.80;;;20.78
76394;BMP180;65216;51.090;-115.352;2023-04-23T10:27:59;86621.40;;;20.76
76394;BMP180;65216;51.090;-115.352;2023-04-23T10:30:28;86618.00;;;20.74
76394;BMP180;65216;51.090;-115.352;2023-04-23T10:32:59;86609.00;;;20.70
76394;BMP180;65216;51.090;-115.352;2023-04-23T10:35:27;86606.60;;;20.70
76394;BMP180;65216;51.090;-115.352;2023-04-23T10:37:58;86599.00;;;20.70
76394;BMP180;65216;51.090;-115.352;2023-04-23T10:40:31;86599.80;;;20.70
76394;BMP180;65216;51.090;-115.352;2023-04-23T10:43:00;86601.80;;;20.70
76394;BMP180;65216;51.090;-115.352;2023-04-23T10:45:30;86599.00;;;20.70
76394;BMP180;65216;51.090;-115.352;2023-04-23T10:47:58;86591.80;;;20.70
76394;BMP180;65216;51.090;-115.352;2023-04-23T10:50:33;86587.60;;;20.70
76394;BMP180;65216;51.090;-115.352;2023-04-23T10:53:02;86594.80;;;20.64
76394;BMP180;65216;51.090;-115.352;2023-04-23T10:55:31;86589.80;;;20.64
76394;BMP180;65216;51.090;-115.352;2023-04-23T10:58:03;86587.60;;;20.60
76394;BMP180;65216;51.090;-115.352;2023-04-23T11:00:45;86586.40;;;20.60
76394;BMP180;65216;51.090;-115.352;2023-04-23T11:03:39;86585.20;;;20.60
76394;BMP180;65216;51.090;-115.352;2023-04-23T11:06:10;86585.60;;;20.60
76394;BMP180;65216;51.090;-115.352;2023-04-23T11:08:50;86581.00;;;20.60
76394;BMP180;65216;51.090;-115.352;2023-04-23T11:11:39;86578.20;;;20.60
76394;BMP180;65216;51.090;-115.352;2023-04-23T11:14:13;86579.00;;;20.60
76394;BMP180;65216;51.090;-115.352;2023-04-23T11:16:41;86581.60;;;20.60
76394;BMP180;65216;51.090;-115.352;2023-04-23T11:19:11;86580.40;;;20.60
76394;BMP180;65216;51.090;-115.352;2023-04-23T11:22:05;86578.80;;;20.60
76394;BMP180;65216;51.090;-115.352;2023-04-23T11:24:36;86579.00;;;20.60
76394;BMP180;65216;51.090;-115.352;2023-04-23T11:27:11;86576.80;;;20.54
76394;BMP180;65216;51.090;-115.352;2023-04-23T11:29:40;86578.60;;;20.52
76394;BMP180;65216;51.090;-115.352;2023-04-23T11:32:10;86577.00;;;20.52
76394;BMP180;65216;51.090;-115.352;2023-04-23T11:34:44;86574.80;;;20.50
76394;BMP180;65216;51.090;-115.352;2023-04-23T11:37:17;86571.00;;;20.50
76394;BMP180;65216;51.090;-115.352;2023-04-23T11:39:45;86566.00;;;20.50
76394;BMP180;65216;51.090;-115.352;2023-04-23T11:42:17;86566.20;;;20.50
76394;BMP180;65216;51.090;-115.352;2023-04-23T11:44:47;86565.40;;;20.50
76394;BMP180;65216;51.090;-115.352;2023-04-23T11:47:18;86559.60;;;20.50
76394;BMP180;65216;51.090;-115.352;2023-04-23T11:49:47;86555.20;;;20.50
76394;BMP180;65216;51.090;-115.352;2023-04-23T11:52:15;86544.60;;;20.50
76394;BMP180;65216;51.090;-115.352;2023-04-23T11:54:42;86547.40;;;20.50
76394;BMP180;65216;51.090;-115.352;2023-04-23T11:57:09;86550.60;;;20.50
76394;BMP180;65216;51.090;-115.352;2023-04-23T11:59:37;86543.60;;;20.50
76394;BMP180;65216;51.090;-115.352;2023-04-23T12:02:04;86548.20;;;20.50
76394;BMP180;65216;51.090;-115.352;2023-04-23T12:04:32;86545.20;;;20.46
76394;BMP180;65216;51.090;-115.352;2023-04-23T12:07:00;86546.80;;;20.40
76394;BMP180;65216;51.090;-115.352;2023-04-23T12:09:28;86548.40;;;20.40
76394;BMP180;65216;51.090;-115.352;2023-04-23T12:11:56;86543.80;;;20.40
76394;BMP180;65216;51.090;-115.352;2023-04-23T12:14:29;86544.60;;;20.40
76394;BMP180;65216;51.090;-115.352;2023-04-23T12:16:57;86544.00;;;20.40
76394;BMP180;65216;51.090;-115.352;2023-04-23T12:19:34;86545.40;;;20.40
76394;BMP180;65216;51.090;-115.352;2023-04-23T12:22:03;86539.40;;;20.40
76394;BMP180;65216;51.090;-115.352;2023-04-23T12:24:49;86541.60;;;20.40
76394;BMP180;65216;51.090;-115.352;2023-04-23T12:27:21;86542.20;;;20.40
76394;BMP180;65216;51.090;-115.352;2023-04-23T12:29:57;86545.00;;;20.40
76394;BMP180;65216;51.090;-115.352;2023-04-23T12:32:27;86545.60;;;20.40
76394;BMP180;65216;51.090;-115.352;2023-04-23T12:34:57;86543.40;;;20.40
76394;BMP180;65216;51.090;-115.352;2023-04-23T12:37:29;86540.20;;;20.40
76394;BMP180;65216;51.090;-115.352;2023-04-23T12:39:57;86537.60;;;20.40
76394;BMP180;65216;51.090;-115.352;2023-04-23T12:42:25;86538.60;;;20.40
76394;BMP180;65216;51.090;-115.352;2023-04-23T12:44:53;86536.60;;;20.40
76394;BMP180;65216;51.090;-115.352;2023-04-23T12:47:23;86532.80;;;20.40
76394;BMP180;65216;51.090;-115.352;2023-04-23T12:49:50;86528.00;;;20.40
76394;BMP180;65216;51.090;-115.352;2023-04-23T12:52:19;86529.20;;;20.40
76394;BMP180;65216;51.090;-115.352;2023-04-23T12:54:46;86526.20;;;20.40
76394;BMP180;65216;51.090;-115.352;2023-04-23T12:57:18;86522.40;;;20.38
76394;BMP180;65216;51.090;-115.352;2023-04-23T12:59:48;86517.80;;;20.38
76394;BMP180;65216;51.090;-115.352;2023-04-23T13:02:15;86515.60;;;20.38
76394;BMP180;65216;51.090;-115.352;2023-04-23T13:04:43;86516.00;;;20.40
76394;BMP180;65216;51.090;-115.352;2023-04-23T13:07:10;86513.20;;;20.40
76394;BMP180;65216;51.090;-115.352;2023-04-23T13:09:37;86514.80;;;20.40
76394;BMP180;65216;51.090;-115.352;2023-04-23T13:12:05;86513.00;;;20.40
76394;BMP180;65216;51.090;-115.352;2023-04-23T13:14:32;86505.00;;;20.40
76394;BMP180;65216;51.090;-115.352;2023-04-23T13:16:59;86500.40;;;20.40
76394;BMP180;65216;51.090;-115.352;2023-04-23T13:19:27;86495.40;;;20.40
76394;BMP180;65216;51.090;-115.352;2023-04-23T13:21:54;86498.20;;;20.40
76394;BMP180;65216;51.090;-115.352;2023-04-23T13:24:21;86496.00;;;20.40
76394;BMP180;65216;51.090;-115.352;2023-04-23T13:26:48;86498.60;;;20.40
76394;BMP180;65216;51.090;-115.352;2023-04-23T13:29:16;86504.80;;;20.40
76394;BMP180;65216;51.090;-115.352;2023-04-23T13:31:43;86502.00;;;20.40
76394;BMP180;65216;51.090;-115.352;2023-04-23T13:34:10;86501.80;;;20.42
76394;BMP180;65216;51.090;-115.352;2023-04-23T13:36:41;86501.60;;;20.48
76394;BMP180;65216;51.090;-115.352;2023-04-23T13:39:11;86499.60;;;20.44
76394;BMP180;65216;51.090;-115.352;2023-04-23T13:41:40;86496.00;;;20.50
76394;BMP180;65216;51.090;-115.352;2023-04-23T13:44:07;86492.20;;;20.50